createdAt,value
2022-11-24T00:05:03.923Z,7.30
2022-11-24T00:10:35.800Z,7.36
2022-11-24T00:16:07.232Z,7.40
2022-11-24T00:21:39.294Z,7.41
2022-11-24T00:27:16.834Z,7.42
2022-11-24T00:32:54.683Z,7.43
2022-11-24T00:38:26.337Z,7.44
2022-11-24T00:43:58.860Z,7.44
2022-11-24T00:49:36.431Z,7.43
2022-11-24T00:55:14.292Z,7.43
2022-11-24T01:00:52.031Z,7.43
2022-11-24T01:06:29.805Z,7.42
2022-11-24T01:12:01.868Z,7.42
2022-11-24T01:17:33.488Z,7.39
2022-11-24T01:23:05.306Z,7.36
2022-11-24T01:28:47.038Z,7.33
2022-11-24T01:34:20.443Z,7.29
2022-11-24T01:39:52.294Z,7.25
2022-11-24T01:45:29.763Z,7.22
2022-11-24T01:51:01.574Z,7.21
2022-11-24T01:56:33.318Z,7.19
2022-11-24T02:02:11.002Z,7.16
2022-11-24T02:07:42.835Z,7.13
2022-11-24T02:13:20.627Z,7.12
2022-11-24T02:18:52.179Z,7.14
2022-11-24T02:24:23.761Z,7.14
2022-11-24T02:29:55.410Z,7.16
2022-11-24T02:37:48.419Z,6.84
2022-11-24T02:43:20.086Z,7.02
2022-11-24T02:48:57.689Z,7.12
2022-11-24T02:54:29.231Z,7.17
2022-11-24T03:00:07.151Z,7.20
2022-11-24T03:05:38.944Z,7.22
2022-11-24T03:11:10.618Z,7.23
2022-11-24T03:16:48.688Z,7.24
2022-11-24T03:22:26.128Z,7.27
2022-11-24T03:27:57.868Z,7.30
2022-11-24T03:33:29.909Z,7.32
2022-11-24T03:39:07.468Z,7.33
2022-11-24T03:44:39.225Z,7.35
2022-11-24T03:50:11.112Z,7.36
2022-11-24T03:55:48.674Z,7.35
2022-11-24T04:01:27.886Z,7.36
2022-11-24T04:07:05.545Z,7.40
2022-11-24T04:12:43.376Z,7.44
2022-11-24T04:18:21.351Z,7.47
2022-11-24T04:20:44.164Z,7.08
2022-11-24T04:26:14.940Z,7.28
2022-11-24T04:31:45.931Z,7.38
2022-11-24T04:37:24.575Z,7.43
2022-11-24T04:43:02.217Z,7.46
2022-11-24T04:48:39.613Z,7.50
2022-11-24T04:59:46.820Z,7.56
2022-11-24T05:05:24.672Z,7.59
2022-11-24T05:11:02.448Z,7.61
2022-11-24T05:16:34.231Z,7.61
2022-11-24T05:22:11.997Z,7.61
2022-11-24T05:27:49.399Z,7.60
2022-11-24T05:33:26.511Z,7.58
2022-11-24T05:39:03.891Z,7.56
2022-11-24T05:44:41.657Z,7.55
2022-11-24T05:50:21.240Z,7.57
2022-11-24T05:55:59.085Z,7.58
2022-11-24T06:01:37.012Z,7.60
2022-11-24T06:07:14.796Z,7.63
2022-11-24T06:12:46.468Z,7.65
2022-11-24T06:18:19.242Z,7.69
2022-11-24T06:26:11.520Z,7.45
2022-11-24T06:31:43.155Z,7.65
2022-11-24T06:37:14.910Z,7.76
2022-11-24T06:42:46.586Z,7.85
2022-11-24T06:48:18.529Z,7.91
2022-11-24T06:53:50.193Z,7.97
2022-11-24T06:59:21.873Z,8.03
2022-11-24T07:04:53.946Z,8.08
2022-11-24T07:10:25.615Z,8.10
2022-11-24T07:15:57.320Z,8.12
2022-11-24T07:21:29.175Z,8.15
2022-11-24T07:27:01.005Z,8.18
2022-11-24T07:32:32.791Z,8.21
2022-11-24T07:38:04.622Z,8.24
2022-11-24T07:43:36.374Z,8.29
2022-11-24T07:49:14.201Z,8.35
2022-11-24T07:54:45.996Z,8.43
2022-11-24T08:00:19.837Z,8.54
2022-11-24T08:11:29.351Z,8.86
2022-11-24T08:17:01.107Z,9.08
2022-11-24T08:22:38.462Z,9.39
2022-11-24T08:28:10.449Z,9.84
2022-11-24T08:33:42.119Z,10.43
2022-11-24T08:39:13.817Z,10.99
2022-11-24T08:44:45.659Z,11.41
2022-11-24T08:50:23.454Z,11.63
2022-11-24T08:55:55.286Z,11.71
2022-11-24T09:01:27.318Z,11.70
2022-11-24T09:06:58.978Z,11.66
2022-11-24T09:12:30.961Z,11.60
2022-11-24T09:18:02.819Z,11.52
2022-11-24T09:23:34.386Z,11.44
2022-11-24T09:29:06.167Z,11.37
2022-11-24T09:34:37.920Z,11.34
2022-11-24T09:40:09.911Z,11.34
2022-11-24T09:46:05.083Z,11.34
2022-11-24T09:51:19.951Z,11.32
2022-11-24T09:56:58.354Z,11.32
2022-11-24T10:02:30.174Z,11.30
2022-11-24T10:08:02.225Z,11.25
2022-11-24T10:13:34.626Z,11.17
2022-11-24T10:19:08.351Z,11.02
2022-11-24T10:24:40.233Z,10.82
2022-11-24T10:30:12.320Z,10.54
2022-11-24T10:35:43.992Z,10.19
2022-11-24T10:41:15.811Z,9.81
2022-11-24T10:46:48.120Z,9.46
2022-11-24T10:52:20.086Z,9.17
2022-11-24T10:57:51.991Z,8.96
2022-11-24T11:03:23.939Z,8.85
2022-11-24T11:09:01.995Z,8.82
2022-11-24T11:14:33.979Z,8.86
2022-11-24T11:20:06.300Z,8.92
2022-11-24T11:25:37.742Z,8.98
2022-11-24T11:31:19.187Z,8.98
2022-11-24T11:39:04.774Z,8.65
2022-11-24T11:44:36.766Z,8.79
2022-11-24T11:50:08.414Z,8.87
2022-11-24T11:55:41.993Z,8.87
2022-11-24T12:01:11.921Z,8.81
2022-11-24T12:06:43.326Z,8.74
2022-11-24T12:12:15.195Z,8.74
2022-11-24T12:17:46.949Z,8.76
2022-11-24T12:23:18.431Z,8.78
2022-11-24T12:28:56.040Z,8.82
2022-11-24T12:34:27.845Z,8.87
2022-11-24T12:39:59.687Z,8.93
2022-11-24T12:45:37.681Z,8.99
2022-11-24T12:51:09.330Z,9.03
2022-11-24T12:56:46.878Z,9.07
2022-11-24T13:02:18.456Z,9.11
2022-11-24T13:13:27.858Z,9.19
2022-11-24T13:18:59.727Z,9.26
2022-11-24T13:24:31.483Z,9.34
2022-11-24T13:35:36.942Z,9.48
2022-11-24T13:41:28.136Z,9.52
2022-11-24T13:46:43.778Z,9.55
2022-11-24T13:52:21.370Z,9.57
2022-11-24T13:57:53.157Z,9.55
2022-11-24T14:03:24.620Z,9.54
2022-11-24T14:08:56.341Z,9.56
2022-11-24T14:14:34.377Z,9.60
2022-11-24T14:25:49.412Z,9.63
2022-11-24T14:31:27.301Z,9.56
2022-11-24T14:36:59.071Z,9.46
2022-11-24T14:42:36.672Z,9.35
2022-11-24T14:48:08.555Z,9.22
2022-11-24T14:53:40.383Z,9.10
2022-11-24T14:59:12.173Z,8.98
2022-11-24T15:05:05.813Z,8.83
2022-11-24T15:10:21.812Z,8.67
2022-11-24T15:15:57.569Z,8.51
2022-11-24T15:21:25.021Z,8.35
2022-11-24T15:26:56.739Z,8.22
2022-11-24T15:32:34.356Z,8.09
2022-11-24T15:38:05.919Z,7.96
2022-11-24T15:43:37.701Z,7.82
2022-11-24T15:49:15.194Z,7.69
2022-11-24T15:54:46.623Z,7.56
2022-11-24T16:00:18.525Z,7.45
2022-11-24T16:05:50.210Z,7.35
2022-11-24T16:11:21.936Z,7.26
2022-11-24T16:16:53.875Z,7.19
2022-11-24T16:22:25.660Z,7.13
2022-11-24T16:27:57.370Z,7.07
2022-11-24T16:33:29.132Z,7.03
2022-11-24T16:39:01.029Z,7.01
2022-11-24T16:44:33.214Z,7.01
2022-11-24T16:50:04.577Z,7.04
2022-11-24T16:55:36.108Z,7.07
2022-11-24T17:01:07.810Z,7.09
2022-11-24T17:06:39.679Z,7.11
2022-11-24T17:12:11.699Z,7.11
2022-11-24T17:18:08.309Z,7.11
2022-11-24T17:23:15.345Z,7.11
2022-11-24T17:28:46.970Z,7.11
2022-11-24T17:34:18.692Z,7.12
2022-11-24T17:45:19.655Z,7.12
2022-11-24T17:50:51.559Z,7.11
2022-11-24T17:56:23.231Z,7.10
2022-11-24T18:07:24.529Z,7.06
2022-11-24T18:12:56.031Z,7.03
2022-11-24T18:18:27.794Z,6.99
2022-11-24T18:29:28.930Z,6.87
2022-11-24T18:35:00.699Z,6.78
2022-11-24T18:40:32.369Z,6.67
2022-11-24T18:46:04.316Z,6.56
2022-11-24T18:57:07.879Z,6.34
2022-11-24T19:02:39.722Z,6.24
2022-11-24T19:13:43.235Z,6.09
2022-11-24T19:24:48.776Z,5.96
2022-11-24T19:30:20.436Z,5.89
2022-11-24T19:36:00.883Z,5.83
2022-11-24T19:41:32.730Z,5.75
2022-11-24T19:47:04.585Z,5.66
2022-11-24T19:52:36.290Z,5.57
2022-11-24T20:03:37.193Z,5.38
2022-11-24T20:14:42.775Z,5.20
2022-11-24T20:20:14.748Z,5.08
2022-11-24T20:25:46.436Z,4.97
2022-11-24T20:36:51.910Z,4.73
2022-11-24T20:42:23.621Z,4.62
2022-11-24T20:53:24.909Z,4.47
2022-11-24T21:04:28.518Z,4.32
2022-11-24T21:10:00.337Z,4.25
2022-11-24T21:15:32.228Z,4.19
2022-11-24T21:21:03.854Z,4.13
2022-11-24T21:26:35.825Z,4.07
2022-11-24T21:32:07.724Z,4.02
2022-11-24T21:37:39.366Z,3.97
2022-11-24T21:43:11.001Z,3.92
2022-11-24T21:48:42.889Z,3.88
2022-11-24T21:54:14.529Z,3.84
2022-11-24T21:59:46.569Z,3.79
2022-11-24T22:07:39.389Z,3.24
2022-11-24T22:13:10.655Z,3.41
2022-11-24T22:18:42.253Z,3.47
2022-11-24T22:24:13.905Z,3.48
2022-11-24T22:29:49.986Z,3.46
2022-11-24T22:35:17.549Z,3.42
2022-11-24T22:46:21.151Z,3.31
2022-11-24T22:57:24.579Z,3.22
2022-11-24T23:02:56.288Z,3.18
2022-11-24T23:08:29.155Z,3.14
2022-11-24T23:14:00.854Z,3.09
2022-11-24T23:19:32.696Z,3.05
2022-11-24T23:25:10.290Z,3.00
2022-11-24T23:30:41.997Z,2.95
2022-11-24T23:36:19.868Z,2.89
2022-11-24T23:41:51.534Z,2.83
2022-11-24T23:47:23.256Z,2.77
2022-11-24T23:52:55.136Z,2.74
2022-11-24T23:58:26.442Z,2.71
